DW9433 Weather Reports


Display with metric or nautical units.
time (UTC)temp
F
wind
direction
speed
MPH
gust
MPH
rain 1hr
in
rain 24hr
in
rain mn
in
humidity
%
barometer
mb
20221007210044 77 273 0.0 1.0 0.00 0.00 0.00 52 1022.1
20221007204534 78 336 0.0 0.0 0.00 0.00 0.00 54 1022.3
20221007203039 78 93 0.0 2.0 0.00 0.00 0.00 54 1022.2
20221007201533 78 171 0.0 2.0 0.00 0.00 0.00 54 1022.2
20221007200037 79 29 0.0 6.0 0.00 0.00 0.00 55 1022.2
20221007194535 79 360 0.0 3.0 0.00 0.00 0.00 55 1022.4
20221007193031 79 338 0.0 4.0 0.00 0.00 0.00 55 1022.5
20221007191531 79 14 0.0 0.0 0.00 0.00 0.00 55 1022.6
20221007190034 80 244 0.0 0.0 0.00 0.00 0.00 55 1022.7
20221007184529 80 44 0.0 0.0 0.00 0.00 0.00 54 1022.9
20221007183036 80 74 0.0 0.0 0.00 0.00 0.00 56 1023.0
20221007181524 79 287 0.0 4.0 0.00 0.00 0.00 58 1023.1
20221007180024 79 355 0.0 2.0 0.00 0.00 0.00 56 1023.3
20221007174523 78 73 0.0 4.0 0.00 0.00 0.00 56 1023.5
20221007173022 78 13 0.0 1.0 0.00 0.00 0.00 55 1023.6
20221007171525 78 15 0.0 4.0 0.00 0.00 0.00 59 1023.7
20221007170019 77 39 0.0 1.0 0.00 0.00 0.00 59 1023.9
20221007160006 73 277 0.0 0.0 0.00 0.00 0.00 66 1023.9
20221007154502 71 49 0.0 1.0 0.00 0.00 0.00 68 1024.0
20221007151558 68 35 0.0 0.0 0.00 0.00 0.00 73 1023.8
20221007150058 68 50 0.0 4.0 0.00 0.00 0.00 73 1023.8
20221007141542 63 43 0.0 0.0 0.00 0.00 0.00 82 1023.8
20221007140047 61 55 0.0 1.0 0.00 0.00 0.00 85 1023.7
20221007134533 58 68 0.0 0.0 0.00 0.00 0.00 89 1023.6
20221007131528 55 71 0.0 0.0 0.00 0.00 0.00 93 1023.2
20221007130027 53 71 0.0 0.0 0.00 0.00 0.00 94 1023.1
20221007124524 52 71 0.0 0.0 0.00 0.00 0.00 94 1022.7
20221007123021 51 71 0.0 0.0 0.00 0.00 0.00 93 1022.5
20221007121523 51 71 0.0 0.0 0.00 0.00 0.00 93 1022.1
20221007120018 51 71 0.0 0.0 0.00 0.00 0.00 93 1022.1
20221007114536 52 71 0.0 0.0 0.00 0.00 0.00 93 1021.9
20221007113016 52 68 0.0 0.0 0.00 0.00 0.00 94 1021.7
20221007111516 51 68 0.0 0.0 0.00 0.00 0.00 93 1021.2
20221007110011 51 68 0.0 0.0 0.00 0.00 0.00 93 1021.0
20221007104510 52 68 0.0 0.0 0.00 0.00 0.00 93 1021.0
20221007103007 52 68 0.0 0.0 0.00 0.00 0.00 93 1020.9
20221007101507 52 68 0.0 0.0 0.00 0.00 0.00 93 1020.8
20221007100015 52 68 0.0 0.0 0.00 0.00 0.00 92 1020.8
20221007094502 53 68 0.0 0.0 0.00 0.00 0.00 93 1020.6
20221007093004 53 68 0.0 0.0 0.00 0.00 0.00 93 1020.6
20221007091601 53 68 0.0 0.0 0.00 0.00 0.00 92 1020.5
20221007090058 53 68 0.0 0.0 0.00 0.00 0.00 92 1020.3
20221007084606 54 68 0.0 0.0 0.00 0.00 0.00 92 1020.3
20221007083055 54 68 0.0 0.0 0.00 0.00 0.00 92 1020.2
20221007081553 54 68 0.0 0.0 0.00 0.00 0.00 92 1020.2
20221007080052 54 68 0.0 0.0 0.00 0.00 0.00 92 1020.1
20221007074604 55 68 0.0 0.0 0.00 0.00 0.00 92 1020.1
20221007073049 55 68 0.0 0.0 0.00 0.00 0.00 92 1020.1
20221007071549 55 68 0.0 0.0 0.00 0.00 0.00 92 1020.1
20221007070047 55 68 0.0 0.0 0.00 0.00 0.00 91 1020.1
20221007064548 55 68 0.0 0.0 0.00 0.00 0.00 91 1020.1
20221007063047 56 68 0.0 0.0 0.00 0.00 0.00 91 1020.0
20221007061544 56 68 0.0 0.0 0.00 0.00 0.00 90 1020.0
20221007060044 56 68 0.0 0.0 0.00 0.00 0.00 90 1019.9
20221007054543 56 68 0.0 0.0 0.00 0.00 0.00 90 1020.0
20221007053140 57 167 0.0 0.0 0.00 0.00 0.00 90 1020.1
20221007051538 57 167 0.0 0.0 0.00 0.00 0.00 90 1020.1
20221007050036 57 167 0.0 0.0 0.00 0.00 0.00 88 1020.0
20221007044535 58 167 0.0 0.0 0.00 0.00 0.00 88 1019.9
20221007043036 58 167 0.0 0.0 0.00 0.00 0.00 88 1019.9
20221007041532 58 167 0.0 0.0 0.00 0.00 0.00 88 1019.7
20221007040041 59 167 0.0 0.0 0.00 0.00 0.00 86 1019.6
20221007034530 59 167 0.0 0.0 0.00 0.00 0.00 86 1019.5
20221007033031 60 167 0.0 0.0 0.00 0.00 0.00 85 1019.4
20221007031529 60 167 0.0 0.0 0.00 0.00 0.00 84 1019.2
20221007030028 61 167 0.0 0.0 0.00 0.00 0.00 82 1019.2
20221007024528 62 167 0.0 0.0 0.00 0.00 0.00 81 1019.1
20221007023027 63 167 0.0 0.0 0.00 0.00 0.00 80 1019.1
20221007021528 63 167 0.0 0.0 0.00 0.00 0.00 79 1019.0
20221007020030 63 167 0.0 0.0 0.00 0.00 0.00 78 1018.8
20221007014527 64 167 0.0 0.0 0.00 0.00 0.00 76 1018.7
20221007013037 65 167 0.0 0.0 0.00 0.00 0.00 74 1018.6
20221007011524 66 167 0.0 0.0 0.00 0.00 0.00 73 1018.5
20221007010025 67 167 0.0 0.0 0.00 0.00 0.00 71 1018.4
20221007004526 68 167 0.0 0.0 0.00 0.00 0.00 69 1018.3
20221007003023 69 167 0.0 0.0 0.00 0.00 0.00 66 1018.1
20221007001532 71 167 0.0 0.0 0.00 0.00 0.00 64 1017.9
20221007000022 72 167 0.0 0.0 0.00 0.00 0.00 61 1017.6
20221006234523 74 167 0.0 0.0 0.00 0.00 0.00 57 1017.4
20221006233021 76 167 0.0 0.0 0.00 0.00 0.00 51 1017.3
20221006231521 77 167 0.0 0.0 0.00 0.00 0.00 49 1017.2
20221006230023 79 167 0.0 0.0 0.00 0.00 0.00 46 1017.1
20221006224520 80 167 0.0 0.0 0.00 0.00 0.00 44 1017.0
20221006223020 81 167 0.0 0.0 0.00 0.00 0.00 42 1016.9
20221006221519 81 166 0.0 0.0 0.00 0.00 0.00 41 1016.9
20221006220023 82 121 0.0 0.0 0.00 0.00 0.00 40 1016.9
20221006214519 82 163 0.0 0.0 0.00 0.00 0.00 38 1016.8
20221006213017 83 241 0.0 2.0 0.00 0.00 0.00 39 1016.9
20221006211518 83 296 0.0 2.0 0.00 0.00 0.00 37 1016.8